Time;durP1;ratioP1;P1;durP2;ratioP2;P2;SDS_P1;SDS_P2;PMS_P1;PMS_P2;Temp;Humidity;BMP_temperature;BMP_pressure;BME280_temperature;BME280_humidity;BME280_pressure;Samples;Min_cycle;Max_cycle;Signal;HPM_P1;HPM_P2
2024/02/13 00:01:48;;;;;;;9.20;3.85;;;3.60;99.90;;;;;;8452893;28;20476;-73
2024/02/13 00:05:51;;;;;;;7.88;3.67;;;3.60;99.90;;;;;;8450193;28;20039;-72
2024/02/13 00:09:54;;;;;;;9.48;3.80;;;3.60;99.90;;;;;;8455025;28;20479;-72
2024/02/13 00:13:56;;;;;;;8.15;3.80;;;3.60;99.90;;;;;;8449538;28;20431;-72
2024/02/13 00:17:59;;;;;;;8.38;3.83;;;3.60;99.90;;;;;;8448208;28;20044;-73
2024/02/13 00:22:01;;;;;;;7.25;4.10;;;3.60;99.90;;;;;;8441287;28;20134;-73
2024/02/13 00:26:04;;;;;;;9.52;3.90;;;3.70;99.90;;;;;;8445554;28;20040;-72
2024/02/13 00:30:08;;;;;;;8.20;4.35;;;3.70;99.90;;;;;;8446220;28;20047;-72
2024/02/13 00:34:10;;;;;;;9.70;4.45;;;3.70;99.90;;;;;;8449240;27;20521;-72
2024/02/13 00:38:15;;;;;;;10.52;4.85;;;3.70;99.90;;;;;;8443918;28;20505;-72
2024/02/13 00:42:17;;;;;;;12.25;5.55;;;3.80;99.90;;;;;;8449342;28;20142;-72
2024/02/13 00:46:19;;;;;;;10.25;4.75;;;3.80;99.90;;;;;;8454222;28;20051;-72
2024/02/13 00:50:21;;;;;;;8.05;4.45;;;3.80;99.90;;;;;;8453383;28;20048;-73
2024/02/13 00:54:24;;;;;;;13.23;5.75;;;3.80;99.90;;;;;;8441907;28;20044;-73
2024/02/13 00:58:26;;;;;;;9.35;4.82;;;3.80;99.90;;;;;;8446185;27;20043;-72
2024/02/13 01:02:28;;;;;;;12.07;6.05;;;3.80;99.90;;;;;;8447150;28;20055;-73
2024/02/13 01:06:30;;;;;;;10.02;6.03;;;3.80;99.90;;;;;;8451739;28;20063;-72
2024/02/13 01:10:32;;;;;;;16.85;6.60;;;3.80;99.90;;;;;;8454832;28;20052;-72
2024/02/13 01:14:34;;;;;;;10.18;5.93;;;3.90;99.90;;;;;;8443273;28;20716;-72
2024/02/13 01:18:36;;;;;;;12.30;6.97;;;3.90;99.90;;;;;;8449516;28;20051;-72
2024/02/13 01:22:39;;;;;;;9.73;5.65;;;3.90;99.90;;;;;;8448558;28;20092;-73
2024/02/13 01:26:42;;;;;;;13.32;6.57;;;3.90;99.90;;;;;;8447542;28;20085;-72
2024/02/13 01:30:44;;;;;;;14.45;7.22;;;3.90;99.90;;;;;;8445268;28;20526;-72
2024/02/13 01:34:46;;;;;;;12.20;7.43;;;3.90;99.90;;;;;;8445864;28;20532;-72
2024/02/13 01:38:48;;;;;;;13.13;7.75;;;3.80;99.90;;;;;;8454168;28;20056;-72
2024/02/13 01:42:50;;;;;;;13.50;7.13;;;3.90;99.90;;;;;;8450183;28;20040;-72
2024/02/13 01:46:52;;;;;;;10.68;6.65;;;3.90;99.90;;;;;;8446300;28;20681;-73
2024/02/13 01:51:00;;;;;;;13.07;7.55;;;3.90;99.90;;;;;;8451960;28;20104;-72
2024/02/13 01:55:07;;;;;;;10.32;6.07;;;3.90;99.90;;;;;;8449129;28;20047;-72
2024/02/13 01:59:11;;;;;;;14.60;7.87;;;4.00;99.90;;;;;;8451316;28;20459;-72
2024/02/13 02:03:15;;;;;;;15.45;8.10;;;4.00;99.90;;;;;;8451720;28;20400;-72
2024/02/13 02:07:18;;;;;;;11.35;6.95;;;4.00;99.90;;;;;;8451458;28;20117;-72
2024/02/13 02:11:20;;;;;;;17.50;9.10;;;4.00;99.90;;;;;;8441414;28;20487;-72
2024/02/13 02:15:21;;;;;;;13.32;7.97;;;4.00;99.90;;;;;;8446249;28;20040;-72
2024/02/13 02:19:23;;;;;;;14.50;7.78;;;4.00;99.90;;;;;;8448042;28;20043;-72
2024/02/13 02:23:26;;;;;;;14.02;8.48;;;4.00;99.90;;;;;;8453394;28;20048;-72
2024/02/13 02:27:28;;;;;;;16.38;9.30;;;4.00;99.90;;;;;;8447549;27;20138;-72
2024/02/13 02:31:31;;;;;;;15.80;8.98;;;4.00;99.90;;;;;;8453185;28;20044;-72
2024/02/13 02:35:33;;;;;;;11.10;5.55;;;4.00;99.90;;;;;;8453797;28;20112;-72
2024/02/13 02:39:35;;;;;;;13.77;8.90;;;4.00;99.90;;;;;;8452910;28;20051;-72
2024/02/13 02:43:37;;;;;;;11.15;7.43;;;4.10;99.90;;;;;;8453497;28;20043;-72
2024/02/13 02:47:39;;;;;;;13.02;7.70;;;4.00;99.90;;;;;;8456321;28;20060;-72
2024/02/13 02:51:43;;;;;;;17.00;9.95;;;4.10;99.90;;;;;;8452819;28;20048;-72
2024/02/13 02:55:45;;;;;;;14.30;8.75;;;4.10;99.90;;;;;;8444365;28;20452;-72
2024/02/13 02:59:47;;;;;;;15.45;10.27;;;4.10;99.90;;;;;;8451652;28;20070;-72
2024/02/13 03:03:51;;;;;;;18.00;10.38;;;4.10;99.90;;;;;;8452590;28;20510;-72
2024/02/13 03:07:54;;;;;;;12.93;8.60;;;4.10;99.90;;;;;;8452874;27;20071;-73
2024/02/13 03:11:56;;;;;;;13.35;9.25;;;4.00;99.90;;;;;;8453553;28;20051;-72
2024/02/13 03:15:58;;;;;;;16.23;10.07;;;4.00;99.90;;;;;;8443661;28;20047;-72
2024/02/13 03:20:00;;;;;;;16.10;9.98;;;4.00;99.90;;;;;;8443421;28;20539;-72
2024/02/13 03:24:03;;;;;;;14.20;9.75;;;3.90;99.90;;;;;;8457358;28;20040;-72
2024/02/13 03:28:05;;;;;;;14.35;10.10;;;3.90;99.90;;;;;;8455126;27;20089;-72
2024/02/13 03:32:07;;;;;;;12.98;8.55;;;3.90;99.90;;;;;;8453554;28;20048;-72
2024/02/13 03:36:10;;;;;;;17.50;9.73;;;3.90;99.90;;;;;;8454855;28;20044;-72
2024/02/13 03:40:15;;;;;;;13.90;9.07;;;3.80;99.90;;;;;;8453373;28;20138;-73
2024/02/13 03:44:17;;;;;;;14.65;9.07;;;3.80;99.90;;;;;;8450304;28;20044;-72
2024/02/13 03:48:19;;;;;;;12.45;8.43;;;3.80;99.90;;;;;;8450085;28;20086;-72
2024/02/13 03:52:21;;;;;;;16.77;8.93;;;3.80;99.90;;;;;;8447514;28;20079;-72
2024/02/13 03:56:23;;;;;;;15.70;9.18;;;3.80;99.90;;;;;;8442400;28;20043;-72
2024/02/13 04:00:25;;;;;;;14.48;9.65;;;3.70;99.90;;;;;;8453376;27;20054;-72
2024/02/13 04:04:27;;;;;;;13.68;8.82;;;3.70;99.90;;;;;;8445983;28;20047;-72
2024/02/13 04:08:29;;;;;;;12.45;8.10;;;3.70;99.90;;;;;;8454065;28;20116;-72
2024/02/13 04:12:31;;;;;;;13.27;8.65;;;3.60;99.90;;;;;;8453478;28;20130;-72
2024/02/13 04:16:33;;;;;;;13.65;8.25;;;3.60;99.90;;;;;;8440869;28;20142;-73
2024/02/13 04:20:37;;;;;;;11.98;7.65;;;3.60;99.90;;;;;;8452200;28;20042;-72
2024/02/13 04:24:39;;;;;;;15.13;8.68;;;3.60;99.90;;;;;;8449654;27;20052;-72
2024/02/13 04:28:41;;;;;;;14.60;8.57;;;3.60;99.90;;;;;;8438723;28;20055;-72
2024/02/13 04:32:43;;;;;;;17.10;8.40;;;3.60;99.90;;;;;;8453524;28;20047;-72
2024/02/13 04:36:45;;;;;;;15.10;8.40;;;3.60;99.90;;;;;;8451141;27;20109;-72
2024/02/13 04:40:47;;;;;;;13.88;8.55;;;3.60;99.90;;;;;;8441614;28;20052;-72
2024/02/13 04:44:48;;;;;;;12.85;8.48;;;3.60;99.90;;;;;;8447397;28;20375;-72
2024/02/13 04:48:52;;;;;;;13.18;7.70;;;3.60;99.90;;;;;;8450638;28;20126;-72
2024/02/13 04:52:55;;;;;;;13.82;8.38;;;3.60;99.90;;;;;;8446910;28;20044;-72
2024/02/13 04:56:58;;;;;;;15.07;8.23;;;3.60;99.90;;;;;;8452822;28;20063;-72
2024/02/13 05:01:05;;;;;;;14.32;8.95;;;3.60;99.90;;;;;;8448898;28;20043;-72
2024/02/13 05:09:27;;;;;;;16.92;10.05;;;3.60;99.90;;;;;;8446780;28;20098;-72
2024/02/13 05:13:32;;;;;;;14.15;9.15;;;3.60;99.90;;;;;;8422995;28;20486;-72
2024/02/13 05:17:35;;;;;;;12.75;8.60;;;3.60;99.90;;;;;;8454327;27;20092;-72
2024/02/13 05:21:37;;;;;;;14.27;8.50;;;3.60;99.90;;;;;;8437514;28;20052;-72
2024/02/13 05:25:39;;;;;;;16.67;10.02;;;3.60;99.90;;;;;;8435510;28;20055;-72
2024/02/13 05:29:43;;;;;;;14.23;8.60;;;3.60;99.90;;;;;;8434004;28;20131;-72
2024/02/13 05:33:45;;;;;;;17.15;10.48;;;3.60;99.90;;;;;;8423778;28;20086;-72
2024/02/13 05:37:48;;;;;;;15.25;8.90;;;3.60;99.90;;;;;;8421060;28;20406;-72
2024/02/13 05:41:50;;;;;;;17.77;9.32;;;3.60;99.90;;;;;;8432802;28;20050;-72
2024/02/13 05:45:52;;;;;;;19.45;9.38;;;3.60;99.90;;;;;;8423492;28;20052;-72
2024/02/13 05:49:54;;;;;;;13.65;8.77;;;3.60;99.90;;;;;;8432908;28;20394;-73
2024/02/13 05:53:57;;;;;;;14.43;9.18;;;3.60;99.90;;;;;;8436410;28;20157;-72
2024/02/13 05:58:00;;;;;;;16.95;10.50;;;3.60;99.90;;;;;;8424746;27;20044;-72
2024/02/13 06:02:02;;;;;;;12.77;8.75;;;3.60;99.90;;;;;;8412900;27;20066;-72
2024/02/13 06:06:05;;;;;;;14.32;9.38;;;3.60;99.90;;;;;;8431722;27;20039;-72
2024/02/13 06:10:09;;;;;;;16.88;9.68;;;3.70;99.90;;;;;;8436368;27;20072;-72
2024/02/13 06:14:12;;;;;;;13.35;8.85;;;3.60;99.90;;;;;;8432767;27;20087;-72
2024/02/13 06:18:13;;;;;;;17.30;9.82;;;3.60;99.90;;;;;;8440114;28;20460;-72
2024/02/13 06:22:17;;;;;;;20.75;9.63;;;3.60;99.90;;;;;;8435564;28;20134;-72
2024/02/13 06:26:19;;;;;;;16.38;9.25;;;3.60;99.90;;;;;;8435199;27;20050;-72
2024/02/13 06:30:21;;;;;;;14.70;8.50;;;3.60;99.90;;;;;;8436403;28;20048;-72
2024/02/13 06:34:23;;;;;;;13.15;8.77;;;3.60;99.90;;;;;;8434829;28;20040;-72
2024/02/13 06:38:25;;;;;;;19.38;9.35;;;3.60;99.90;;;;;;8437062;28;20063;-72
2024/02/13 06:42:27;;;;;;;14.52;8.95;;;3.70;99.90;;;;;;8431160;27;20066;-72
2024/02/13 06:46:28;;;;;;;14.18;8.23;;;3.70;99.90;;;;;;8423164;28;20433;-73
2024/02/13 06:50:30;;;;;;;15.45;10.10;;;3.70;99.90;;;;;;8422469;27;20055;-72
2024/02/13 06:54:32;;;;;;;13.68;7.90;;;3.70;99.90;;;;;;8427502;28;20078;-72
2024/02/13 06:58:34;;;;;;;14.00;7.72;;;3.70;99.90;;;;;;8425723;28;20516;-72
2024/02/13 07:02:36;;;;;;;11.15;7.57;;;3.80;99.90;;;;;;8427607;28;20044;-72
2024/02/13 07:06:38;;;;;;;14.30;7.35;;;3.80;99.90;;;;;;8428979;28;20059;-72
2024/02/13 07:10:59;;;;;;;12.43;7.30;;;3.80;99.90;;;;;;8433688;28;20047;-73
2024/02/13 07:15:01;;;;;;;13.23;7.70;;;3.80;99.90;;;;;;8425579;28;20059;-72
2024/02/13 07:19:03;;;;;;;12.15;7.65;;;3.80;99.90;;;;;;8423190;28;20044;-72
2024/02/13 07:23:05;;;;;;;14.45;7.90;;;3.80;99.90;;;;;;8428757;28;20560;-72
2024/02/13 07:27:07;;;;;;;14.82;8.32;;;3.80;99.90;;;;;;8437402;28;20039;-72
2024/02/13 07:31:10;;;;;;;11.00;7.40;;;3.80;99.90;;;;;;8435870;28;20051;-72
2024/02/13 07:35:13;;;;;;;10.48;6.30;;;3.80;99.90;;;;;;8438604;28;20040;-72
2024/02/13 07:39:15;;;;;;;12.48;6.75;;;3.90;99.90;;;;;;8437945;28;20135;-72
2024/02/13 07:43:17;;;;;;;12.50;5.80;;;3.90;99.90;;;;;;8430689;27;20044;-72
2024/02/13 07:47:21;;;;;;;15.43;6.22;;;3.90;99.90;;;;;;8438303;28;20048;-72
2024/02/13 07:51:23;;;;;;;9.80;5.32;;;4.00;99.90;;;;;;8427055;28;20048;-72
2024/02/13 07:55:25;;;;;;;9.63;5.70;;;4.10;99.90;;;;;;8435932;28;20047;-72
2024/02/13 07:59:28;;;;;;;13.90;5.65;;;4.10;99.90;;;;;;8421108;28;20096;-72
2024/02/13 08:03:33;;;;;;;9.25;5.55;;;4.20;99.90;;;;;;8417104;28;20145;-71
2024/02/13 08:07:35;;;;;;;11.23;5.30;;;4.20;99.90;;;;;;8436675;28;20059;-72
2024/02/13 08:11:38;;;;;;;9.90;5.85;;;4.30;99.90;;;;;;8422960;28;20052;-72
2024/02/13 08:15:40;;;;;;;10.70;5.53;;;4.30;99.90;;;;;;8434363;27;20131;-71
2024/02/13 08:19:42;;;;;;;9.77;5.78;;;4.40;99.90;;;;;;8420857;28;20044;-72
2024/02/13 08:23:44;;;;;;;14.77;5.60;;;4.50;99.90;;;;;;8422861;27;20127;-72
2024/02/13 08:27:46;;;;;;;15.10;5.75;;;4.60;99.90;;;;;;8433308;28;20043;-72
2024/02/13 08:31:50;;;;;;;8.73;5.32;;;4.60;99.90;;;;;;8428839;27;20634;-72
2024/02/13 08:35:54;;;;;;;7.97;4.93;;;4.60;99.90;;;;;;8437784;28;20127;-72
2024/02/13 08:39:57;;;;;;;9.68;5.43;;;4.70;99.90;;;;;;8433719;28;20048;-72
2024/02/13 08:43:59;;;;;;;9.70;4.95;;;4.70;99.90;;;;;;8419120;28;20395;-71
2024/02/13 08:48:01;;;;;;;10.55;4.82;;;4.80;99.90;;;;;;8457212;27;20109;-72
2024/02/13 08:52:04;;;;;;;9.77;5.43;;;4.80;99.90;;;;;;8421891;28;20131;-71
2024/02/13 08:56:06;;;;;;;9.40;5.03;;;5.00;99.90;;;;;;8419649;28;20110;-72
2024/02/13 09:00:14;;;;;;;11.40;5.55;;;5.10;99.90;;;;;;8438946;28;20403;-71
2024/02/13 09:04:16;;;;;;;11.50;5.15;;;5.30;99.90;;;;;;8422799;27;20047;-71
2024/02/13 09:08:18;;;;;;;9.85;4.80;;;5.40;99.90;;;;;;8437347;28;20055;-72
2024/02/13 09:12:20;;;;;;;8.00;4.35;;;5.50;99.90;;;;;;8426207;28;20095;-72
2024/02/13 09:16:22;;;;;;;8.68;4.78;;;5.70;99.90;;;;;;8419389;28;20044;-72
2024/02/13 09:20:24;;;;;;;10.40;5.35;;;5.90;99.90;;;;;;8421663;28;20445;-72
2024/02/13 09:24:27;;;;;;;9.77;5.13;;;6.00;99.90;;;;;;8423153;28;20040;-72
2024/02/13 09:28:29;;;;;;;11.27;4.70;;;6.10;99.90;;;;;;8422477;28;20478;-72
2024/02/13 09:32:34;;;;;;;9.48;5.38;;;6.10;99.90;;;;;;8424943;28;20051;-72
2024/02/13 09:36:37;;;;;;;10.98;4.80;;;6.20;99.90;;;;;;8431146;28;20048;-72
2024/02/13 09:40:40;;;;;;;7.18;4.32;;;6.20;99.90;;;;;;8441294;28;20043;-72
2024/02/13 09:44:42;;;;;;;12.55;4.80;;;6.30;99.90;;;;;;8426960;28;20459;-72
2024/02/13 09:48:47;;;;;;;8.73;4.18;;;6.30;99.90;;;;;;8437881;27;20419;-72
2024/02/13 09:52:57;;;;;;;9.95;4.35;;;6.30;99.90;;;;;;8427451;28;20082;-72
2024/02/13 09:57:01;;;;;;;8.38;4.28;;;6.40;99.90;;;;;;8432036;28;20112;-72
2024/02/13 10:01:05;;;;;;;13.18;5.10;;;6.70;99.90;;;;;;8434644;28;20051;-72
2024/02/13 10:05:10;;;;;;;11.20;4.63;;;6.90;99.90;;;;;;8438077;28;20475;-72
2024/02/13 10:09:15;;;;;;;10.48;4.60;;;7.00;99.90;;;;;;8431547;27;20052;-72
2024/02/13 10:13:17;;;;;;;10.73;4.13;;;7.10;99.90;;;;;;8422416;28;20047;-72
2024/02/13 10:17:18;;;;;;;8.85;4.70;;;7.30;99.90;;;;;;8426210;27;20050;-72
2024/02/13 10:21:24;;;;;;;8.15;4.75;;;7.40;99.90;;;;;;8432658;28;20048;-72
2024/02/13 10:25:31;;;;;;;7.68;4.50;;;7.60;99.90;;;;;;8445966;28;20048;-72
2024/02/13 10:29:41;;;;;;;7.87;4.13;;;7.60;99.90;;;;;;8424179;27;20055;-72
2024/02/13 10:33:43;;;;;;;9.82;4.82;;;7.80;99.90;;;;;;8469210;27;20097;-72
2024/02/13 10:37:47;;;;;;;11.38;5.00;;;8.00;99.90;;;;;;8441729;27;20047;-72
2024/02/13 10:41:57;;;;;;;10.18;4.30;;;8.20;99.90;;;;;;8436043;27;20051;-72
2024/02/13 10:46:05;;;;;;;8.93;4.75;;;8.40;99.90;;;;;;8468990;27;20139;-71
2024/02/13 10:50:08;;;;;;;7.35;4.00;;;8.70;99.90;;;;;;8439481;27;20053;-72
2024/02/13 10:54:12;;;;;;;8.00;4.32;;;8.90;99.90;;;;;;8438501;27;20079;-72
2024/02/13 10:58:15;;;;;;;9.13;4.25;;;9.00;99.90;;;;;;8424361;27;20044;-72
2024/02/13 11:02:31;;;;;;;8.15;3.85;;;9.20;99.90;;;;;;8429191;27;20123;-72
2024/02/13 11:06:33;;;;;;;7.65;3.85;;;9.60;99.90;;;;;;8423546;28;20090;-72
2024/02/13 11:10:35;;;;;;;7.53;3.25;;;9.90;99.90;;;;;;8428238;27;20460;-72
2024/02/13 11:14:37;;;;;;;6.63;3.45;;;9.80;99.90;;;;;;8419114;28;20074;-72
2024/02/13 11:18:51;;;;;;;7.60;3.20;;;9.70;99.90;;;;;;8435402;27;20047;-72
2024/02/13 11:23:00;;;;;;;6.72;3.70;;;9.50;99.90;;;;;;8424453;27;20044;-71
2024/02/13 11:27:03;;;;;;;7.30;3.95;;;9.40;99.90;;;;;;8429657;28;20054;-72
2024/02/13 11:31:29;;;;;;;6.63;3.45;;;9.30;99.90;;;;;;8425808;28;20056;-71
2024/02/13 11:35:54;;;;;;;8.70;3.50;;;9.20;99.90;;;;;;8429032;28;20059;-72
2024/02/13 11:40:05;;;;;;;8.05;3.50;;;9.10;99.90;;;;;;8436271;28;20044;-72
2024/02/13 11:44:12;;;;;;;10.23;3.65;;;9.20;99.90;;;;;;8437088;27;20048;-72
2024/02/13 11:48:25;;;;;;;10.73;3.80;;;9.30;99.90;;;;;;8435955;28;20048;-72
2024/02/13 11:52:32;;;;;;;6.45;3.65;;;9.20;99.90;;;;;;8432137;28;20044;-71
2024/02/13 11:56:35;;;;;;;10.25;3.78;;;9.20;99.90;;;;;;8420061;27;20093;-71
2024/02/13 12:00:37;;;;;;;8.30;3.67;;;9.30;99.90;;;;;;8421270;28;20070;-71
2024/02/13 12:04:41;;;;;;;7.85;3.42;;;9.40;99.90;;;;;;8427267;27;20545;-71
2024/02/13 12:08:44;;;;;;;6.30;3.13;;;9.50;99.90;;;;;;8426314;28;20048;-71
2024/02/13 12:12:49;;;;;;;6.00;3.30;;;9.70;99.90;;;;;;8458867;27;21032;-71
2024/02/13 12:16:51;;;;;;;10.43;3.53;;;10.00;99.90;;;;;;8427898;27;20100;-72
2024/02/13 12:20:54;;;;;;;8.93;3.35;;;10.10;99.90;;;;;;8436346;28;20051;-71
2024/02/13 12:24:56;;;;;;;9.23;3.25;;;10.10;99.90;;;;;;8426978;27;20080;-72
2024/02/13 12:28:58;;;;;;;7.28;3.22;;;10.10;99.90;;;;;;8426471;28;20516;-72
2024/02/13 12:33:06;;;;;;;5.97;2.50;;;10.10;99.90;;;;;;8424941;28;20066;-72
2024/02/13 12:37:17;;;;;;;5.93;2.78;;;10.10;99.90;;;;;;8433013;28;20059;-71
2024/02/13 12:41:19;;;;;;;6.28;3.00;;;10.00;99.90;;;;;;8422755;28;20090;-72
2024/02/13 12:45:25;;;;;;;4.88;3.00;;;9.80;99.90;;;;;;8434481;28;20093;-71
2024/02/13 12:49:26;;;;;;;6.95;2.70;;;9.80;99.90;;;;;;8426181;27;20090;-72
2024/02/13 12:53:34;;;;;;;8.00;3.25;;;9.60;99.90;;;;;;8423334;28;20481;-72
2024/02/13 12:57:36;;;;;;;7.40;3.03;;;9.50;99.90;;;;;;8422433;28;20093;-72
2024/02/13 13:01:45;;;;;;;6.60;2.97;;;9.40;99.90;;;;;;8433876;28;20064;-71
2024/02/13 13:05:49;;;;;;;6.30;3.10;;;9.30;99.90;;;;;;8423156;28;20442;-72
2024/02/13 13:09:52;;;;;;;5.22;2.63;;;9.20;99.90;;;;;;8419125;28;20048;-72
2024/02/13 13:13:55;;;;;;;7.00;3.10;;;9.20;99.90;;;;;;8430242;28;20101;-72
2024/02/13 13:17:57;;;;;;;7.65;3.45;;;9.20;99.90;;;;;;8436750;28;20069;-71
2024/02/13 13:21:59;;;;;;;7.15;2.90;;;9.20;99.90;;;;;;8426456;28;20146;-72
2024/02/13 13:26:01;;;;;;;6.40;3.10;;;9.20;99.90;;;;;;8420035;28;20144;-72
2024/02/13 13:30:04;;;;;;;7.75;3.00;;;9.20;99.90;;;;;;8418545;28;20064;-71
2024/02/13 13:34:08;;;;;;;5.57;2.78;;;9.30;99.90;;;;;;8422167;28;20560;-71
2024/02/13 13:38:11;;;;;;;9.35;3.10;;;9.40;99.90;;;;;;8420486;28;20496;-72
2024/02/13 13:42:14;;;;;;;5.57;2.55;;;9.50;99.90;;;;;;8417152;28;20049;-71
2024/02/13 13:46:16;;;;;;;6.38;2.45;;;9.60;99.90;;;;;;8423402;28;20069;-72
2024/02/13 13:50:18;;;;;;;7.97;2.63;;;9.70;99.90;;;;;;8420142;28;20052;-72
2024/02/13 13:54:20;;;;;;;5.13;2.10;;;9.80;99.90;;;;;;8420987;28;20047;-72
2024/02/13 13:58:22;;;;;;;6.65;2.50;;;9.80;99.90;;;;;;8419617;28;20052;-71
2024/02/13 14:02:25;;;;;;;4.97;2.00;;;9.90;99.90;;;;;;8462421;27;20052;-72
2024/02/13 14:06:27;;;;;;;5.22;1.83;;;9.90;99.90;;;;;;8431108;28;20047;-72
2024/02/13 14:10:30;;;;;;;4.50;1.73;;;10.00;99.90;;;;;;8422562;28;20048;-71
2024/02/13 14:14:32;;;;;;;4.10;1.88;;;10.00;99.90;;;;;;8422711;28;20101;-72
2024/02/13 14:18:34;;;;;;;3.95;1.50;;;10.00;99.90;;;;;;8421169;28;20651;-71
2024/02/13 14:22:37;;;;;;;6.93;1.85;;;10.00;99.90;;;;;;8429033;27;20048;-71
2024/02/13 14:26:39;;;;;;;4.13;1.52;;;10.00;99.90;;;;;;8437568;28;20053;-72
2024/02/13 14:30:41;;;;;;;3.92;1.13;;;10.00;99.90;;;;;;8428152;28;20054;-72
2024/02/13 14:34:42;;;;;;;5.32;1.42;;;10.10;99.90;;;;;;8426690;28;20390;-72
2024/02/13 14:38:45;;;;;;;3.38;1.42;;;10.00;99.90;;;;;;8426552;28;20047;-71
2024/02/13 14:42:47;;;;;;;5.25;1.35;;;10.00;99.90;;;;;;8423690;27;20043;-72
2024/02/13 14:46:49;;;;;;;3.58;1.20;;;10.00;99.90;;;;;;8424849;28;20143;-72
2024/02/13 14:50:52;;;;;;;4.50;1.77;;;10.10;99.90;;;;;;8426873;27;20085;-72
2024/02/13 14:54:54;;;;;;;4.43;1.50;;;10.10;99.90;;;;;;8428737;28;20466;-72
2024/02/13 14:58:56;;;;;;;3.30;1.20;;;10.20;99.90;;;;;;8426189;28;20075;-72
2024/02/13 15:02:59;;;;;;;3.22;1.30;;;10.30;99.90;;;;;;8432949;28;20043;-72
2024/02/13 15:07:04;;;;;;;5.53;1.58;;;10.20;99.90;;;;;;8428150;27;20055;-72
2024/02/13 15:11:10;;;;;;;3.25;1.70;;;10.20;99.90;;;;;;8422878;28;20044;-71
2024/02/13 15:15:17;;;;;;;3.97;1.55;;;10.20;99.90;;;;;;8421352;28;20074;-72
2024/02/13 15:19:20;;;;;;;5.50;1.40;;;10.10;99.90;;;;;;8428963;27;20048;-72
2024/02/13 15:23:26;;;;;;;3.80;1.17;;;10.00;99.90;;;;;;8424862;27;20052;-72
2024/02/13 15:27:32;;;;;;;6.10;2.00;;;9.90;99.90;;;;;;8436459;28;20055;-72
2024/02/13 15:31:34;;;;;;;3.78;1.38;;;9.80;99.90;;;;;;8423770;28;20127;-72
2024/02/13 15:35:50;;;;;;;3.88;1.20;;;9.80;99.90;;;;;;8424212;28;20455;-72
2024/02/13 15:48:34;;;;;;;5.80;1.30;;;9.70;99.90;;;;;;8412818;28;20135;-72
2024/02/13 15:52:36;;;;;;;4.22;1.33;;;9.60;99.90;;;;;;8402903;27;20090;-72
2024/02/13 15:56:39;;;;;;;4.65;1.20;;;9.50;99.90;;;;;;8418473;28;20105;-71
2024/02/13 16:00:42;;;;;;;3.22;1.38;;;9.50;99.90;;;;;;8419518;28;20039;-72
2024/02/13 16:04:44;;;;;;;4.35;1.20;;;9.50;99.90;;;;;;8436139;27;20040;-72
2024/02/13 16:08:46;;;;;;;3.97;1.15;;;9.50;99.90;;;;;;8430698;28;20043;-71
2024/02/13 16:12:48;;;;;;;4.55;1.50;;;9.50;99.90;;;;;;8420563;28;20086;-72
2024/02/13 16:16:50;;;;;;;3.97;1.60;;;9.40;99.90;;;;;;8420793;28;20055;-72
2024/02/13 16:20:51;;;;;;;3.22;1.42;;;9.40;99.90;;;;;;8416619;28;20385;-71
2024/02/13 16:24:53;;;;;;;5.53;1.48;;;9.40;99.90;;;;;;8419976;27;20558;-72
2024/02/13 16:28:55;;;;;;;3.50;1.30;;;9.40;99.90;;;;;;8421484;27;20090;-72
2024/02/13 16:32:58;;;;;;;4.20;1.42;;;9.40;99.90;;;;;;8418095;28;20051;-72
2024/02/13 16:37:00;;;;;;;4.70;1.58;;;9.30;99.90;;;;;;8417562;28;20063;-72
2024/02/13 16:41:02;;;;;;;4.20;1.70;;;9.30;99.90;;;;;;8420986;27;20044;-72
2024/02/13 16:45:07;;;;;;;4.55;1.70;;;9.20;99.90;;;;;;8423462;28;20055;-71
2024/02/13 16:49:11;;;;;;;4.00;1.60;;;9.20;99.90;;;;;;8421077;28;20100;-71
2024/02/13 16:53:14;;;;;;;4.97;1.80;;;9.10;99.90;;;;;;8424823;28;20139;-71
2024/02/13 16:57:16;;;;;;;3.22;1.42;;;9.00;99.90;;;;;;8415766;28;20097;-72
2024/02/13 17:01:17;;;;;;;2.85;1.40;;;8.90;99.90;;;;;;8415262;28;20103;-71
2024/02/13 17:05:20;;;;;;;4.07;1.20;;;8.80;99.90;;;;;;8418764;28;20088;-72
2024/02/13 17:09:23;;;;;;;4.80;1.42;;;8.70;99.90;;;;;;8417238;28;20102;-72
2024/02/13 17:13:25;;;;;;;4.30;1.40;;;8.60;99.90;;;;;;8424160;28;20442;-72
2024/02/13 17:17:26;;;;;;;3.53;1.42;;;8.60;99.90;;;;;;8432460;28;20092;-72
2024/02/13 17:21:30;;;;;;;4.00;1.27;;;8.50;99.90;;;;;;8438281;28;20681;-72
2024/02/13 17:25:32;;;;;;;3.88;1.33;;;8.50;99.90;;;;;;8431514;28;20083;-72
2024/02/13 17:29:34;;;;;;;3.40;1.40;;;8.50;99.90;;;;;;8422190;28;20052;-72
2024/02/13 17:33:36;;;;;;;3.97;1.50;;;8.40;99.90;;;;;;8409480;28;20476;-72
2024/02/13 17:37:38;;;;;;;5.70;1.65;;;8.40;99.90;;;;;;8421518;28;20059;-72
2024/02/13 17:41:40;;;;;;;3.92;1.60;;;8.40;99.90;;;;;;8414350;28;20052;-72
2024/02/13 17:45:42;;;;;;;5.35;1.85;;;8.40;99.90;;;;;;8424734;28;20047;-72
2024/02/13 17:49:44;;;;;;;4.70;1.90;;;8.40;99.90;;;;;;8437621;28;20048;-72
2024/02/13 17:53:46;;;;;;;7.82;2.15;;;8.40;99.90;;;;;;8436316;27;20138;-72
2024/02/13 17:57:48;;;;;;;4.75;1.98;;;8.30;99.90;;;;;;8442193;27;23394;-72
2024/02/13 18:01:52;;;;;;;6.93;2.70;;;8.40;99.90;;;;;;8431151;27;20048;-72
2024/02/13 18:05:54;;;;;;;6.28;2.38;;;8.40;99.90;;;;;;8428890;27;20047;-72
2024/02/13 18:09:56;;;;;;;5.72;2.00;;;8.40;99.90;;;;;;8419592;27;20051;-72
2024/02/13 18:13:58;;;;;;;4.63;2.28;;;8.40;99.90;;;;;;8429342;27;20051;-72
2024/02/13 18:18:00;;;;;;;5.10;2.15;;;8.40;99.90;;;;;;8445672;27;20051;-72
2024/02/13 18:22:02;;;;;;;5.03;2.47;;;8.40;99.90;;;;;;8438442;27;20109;-72
2024/02/13 18:26:04;;;;;;;4.47;2.05;;;8.40;99.90;;;;;;8439616;27;20047;-72
2024/02/13 18:30:07;;;;;;;9.73;2.60;;;8.40;99.90;;;;;;8434746;27;20047;-72
2024/02/13 18:34:09;;;;;;;6.43;2.92;;;8.40;99.90;;;;;;8425711;28;20082;-72
2024/02/13 18:38:15;;;;;;;5.30;2.72;;;8.30;99.90;;;;;;8427539;27;20048;-72
2024/02/13 18:42:17;;;;;;;6.32;2.90;;;8.30;99.90;;;;;;8440134;27;20049;-72
2024/02/13 18:46:19;;;;;;;9.32;3.30;;;8.30;99.90;;;;;;8426574;27;20068;-72
2024/02/13 18:50:21;;;;;;;7.82;3.42;;;8.30;99.90;;;;;;8424296;27;20495;-72
2024/02/13 18:54:25;;;;;;;7.90;3.05;;;8.30;99.90;;;;;;8421454;27;20506;-72
2024/02/13 18:58:31;;;;;;;4.97;2.33;;;8.20;99.90;;;;;;8432681;27;20145;-72
2024/02/13 19:02:33;;;;;;;6.80;3.42;;;8.20;99.90;;;;;;8427540;27;20403;-72
2024/02/13 19:06:35;;;;;;;7.15;3.00;;;8.20;99.90;;;;;;8430798;28;20070;-72
2024/02/13 19:10:37;;;;;;;7.00;3.25;;;8.20;99.90;;;;;;8427003;28;20097;-72
2024/02/13 19:14:39;;;;;;;6.72;3.55;;;8.20;99.90;;;;;;8439438;28;20055;-73
2024/02/13 19:18:41;;;;;;;5.97;3.20;;;8.20;99.90;;;;;;8433280;28;20044;-72
2024/02/13 19:22:43;;;;;;;5.80;2.83;;;8.20;99.90;;;;;;8431646;27;20075;-72
2024/02/13 19:26:45;;;;;;;6.18;3.00;;;8.20;99.90;;;;;;8429571;28;20040;-72
2024/02/13 19:30:50;;;;;;;4.97;2.65;;;8.20;99.90;;;;;;8429538;27;20044;-72
2024/02/13 19:34:52;;;;;;;7.00;3.10;;;8.20;99.90;;;;;;8429612;28;20093;-72
2024/02/13 19:38:53;;;;;;;6.68;2.95;;;8.20;99.90;;;;;;8436216;27;20044;-72
2024/02/13 19:42:57;;;;;;;5.88;2.78;;;8.10;99.90;;;;;;8430782;28;20374;-72
2024/02/13 19:46:59;;;;;;;7.38;3.38;;;8.20;99.90;;;;;;8429564;27;23326;-72
2024/02/13 19:51:03;;;;;;;5.85;3.22;;;8.10;99.90;;;;;;8427918;28;20070;-72
2024/02/13 19:55:06;;;;;;;8.52;3.08;;;8.20;99.90;;;;;;8427287;28;20100;-72
2024/02/13 19:59:09;;;;;;;7.32;3.42;;;8.10;99.90;;;;;;8428265;28;20172;-72
2024/02/13 20:03:11;;;;;;;7.20;3.13;;;8.20;99.90;;;;;;8422519;28;20342;-72
2024/02/13 20:07:29;;;;;;;6.55;3.20;;;8.20;99.90;;;;;;8422195;28;20090;-72
2024/02/13 20:11:31;;;;;;;5.53;2.80;;;8.20;99.90;;;;;;8419866;28;20569;-72
2024/02/13 20:15:35;;;;;;;5.97;3.35;;;8.10;99.90;;;;;;8423234;28;20077;-72
2024/02/13 20:19:37;;;;;;;6.65;3.42;;;8.20;99.90;;;;;;8457779;27;20055;-72
2024/02/13 20:23:40;;;;;;;6.40;2.97;;;8.20;99.90;;;;;;8421949;28;20047;-72
2024/02/13 20:27:43;;;;;;;6.45;3.45;;;8.20;99.90;;;;;;8424452;28;20040;-72
2024/02/13 20:31:46;;;;;;;5.55;3.00;;;8.10;99.90;;;;;;8424137;28;20491;-72
2024/02/13 20:36:14;;;;;;;5.60;3.00;;;8.20;99.90;;;;;;8422292;28;20063;-72
2024/02/13 20:40:16;;;;;;;5.85;2.97;;;8.20;99.90;;;;;;8417719;28;20143;-72
2024/02/13 20:44:18;;;;;;;6.93;3.63;;;8.20;99.90;;;;;;8430848;28;20036;-72
2024/02/13 20:48:20;;;;;;;7.80;3.47;;;8.20;99.90;;;;;;8423999;28;20043;-72
2024/02/13 20:52:23;;;;;;;7.88;3.55;;;8.20;99.90;;;;;;8425614;28;20047;-72
2024/02/13 20:56:25;;;;;;;8.27;3.63;;;8.20;99.90;;;;;;8415790;28;20052;-72
2024/02/13 21:00:28;;;;;;;7.07;3.60;;;8.30;99.90;;;;;;8418267;28;20455;-72
2024/02/13 21:04:30;;;;;;;6.43;3.22;;;8.30;99.90;;;;;;8422225;28;20036;-72
2024/02/13 21:08:32;;;;;;;7.05;3.70;;;8.30;99.90;;;;;;8425522;28;20052;-72
2024/02/13 21:12:34;;;;;;;7.10;3.70;;;8.30;99.90;;;;;;8423436;28;20044;-72
2024/02/13 21:16:35;;;;;;;5.75;2.85;;;8.40;99.90;;;;;;8434198;28;20043;-72
2024/02/13 21:20:45;;;;;;;6.97;3.63;;;8.40;99.90;;;;;;8424987;28;20399;-72
2024/02/13 21:24:50;;;;;;;8.10;3.58;;;8.40;99.90;;;;;;8421582;28;20483;-72
2024/02/13 21:33:50;;;;;;;7.05;3.78;;;8.40;99.90;;;;;;8422555;28;20047;-72